sensor_id;sensor_type;location;lat;lon;timestamp;P1;durP1;ratioP1;P2;durP2;ratioP2
74791;SDS011;63319;46.046;17.802;2023-04-15T00:01:46;4.28;;;1.90;;
74791;SDS011;63319;46.046;17.802;2023-04-15T00:04:49;4.03;;;2.00;;
74791;SDS011;63319;46.046;17.802;2023-04-15T00:07:52;4.00;;;1.80;;
74791;SDS011;63319;46.046;17.802;2023-04-15T00:10:55;3.85;;;1.90;;
74791;SDS011;63319;46.046;17.802;2023-04-15T00:13:58;3.75;;;1.73;;
74791;SDS011;63319;46.046;17.802;2023-04-15T00:17:01;4.10;;;2.03;;
74791;SDS011;63319;46.046;17.802;2023-04-15T00:20:06;3.43;;;1.63;;
74791;SDS011;63319;46.046;17.802;2023-04-15T00:23:09;3.97;;;1.93;;
74791;SDS011;63319;46.046;17.802;2023-04-15T00:26:11;3.38;;;1.77;;
74791;SDS011;63319;46.046;17.802;2023-04-15T00:29:15;4.13;;;1.65;;
74791;SDS011;63319;46.046;17.802;2023-04-15T00:32:18;3.97;;;1.98;;
74791;SDS011;63319;46.046;17.802;2023-04-15T00:35:21;3.53;;;1.70;;
74791;SDS011;63319;46.046;17.802;2023-04-15T00:38:25;3.33;;;1.70;;
74791;SDS011;63319;46.046;17.802;2023-04-15T00:41:28;3.25;;;1.60;;
74791;SDS011;63319;46.046;17.802;2023-04-15T00:44:31;3.45;;;1.50;;
74791;SDS011;63319;46.046;17.802;2023-04-15T00:47:35;3.60;;;1.85;;
74791;SDS011;63319;46.046;17.802;2023-04-15T00:50:43;3.67;;;1.70;;
74791;SDS011;63319;46.046;17.802;2023-04-15T00:53:46;3.23;;;1.40;;
74791;SDS011;63319;46.046;17.802;2023-04-15T00:56:49;3.65;;;1.77;;
74791;SDS011;63319;46.046;17.802;2023-04-15T00:59:52;3.75;;;1.70;;
74791;SDS011;63319;46.046;17.802;2023-04-15T01:02:57;4.38;;;1.55;;
74791;SDS011;63319;46.046;17.802;2023-04-15T01:06:00;4.17;;;1.57;;
74791;SDS011;63319;46.046;17.802;2023-04-15T01:09:05;3.93;;;1.80;;
74791;SDS011;63319;46.046;17.802;2023-04-15T01:12:09;3.47;;;1.70;;
74791;SDS011;63319;46.046;17.802;2023-04-15T01:15:14;3.03;;;1.48;;
74791;SDS011;63319;46.046;17.802;2023-04-15T01:18:17;2.83;;;1.42;;
74791;SDS011;63319;46.046;17.802;2023-04-15T01:21:21;4.13;;;1.73;;
74791;SDS011;63319;46.046;17.802;2023-04-15T01:24:25;2.90;;;1.30;;
74791;SDS011;63319;46.046;17.802;2023-04-15T01:27:29;3.80;;;1.60;;
74791;SDS011;63319;46.046;17.802;2023-04-15T01:30:32;4.45;;;1.88;;
74791;SDS011;63319;46.046;17.802;2023-04-15T01:33:36;3.67;;;1.60;;
74791;SDS011;63319;46.046;17.802;2023-04-15T01:36:39;3.93;;;1.60;;
74791;SDS011;63319;46.046;17.802;2023-04-15T01:39:42;2.97;;;1.70;;
74791;SDS011;63319;46.046;17.802;2023-04-15T01:42:45;3.65;;;1.60;;
74791;SDS011;63319;46.046;17.802;2023-04-15T01:45:49;3.60;;;1.50;;
74791;SDS011;63319;46.046;17.802;2023-04-15T01:48:52;3.65;;;1.63;;
74791;SDS011;63319;46.046;17.802;2023-04-15T01:51:55;3.50;;;1.67;;
74791;SDS011;63319;46.046;17.802;2023-04-15T01:54:58;4.20;;;1.50;;
74791;SDS011;63319;46.046;17.802;2023-04-15T01:58:00;3.80;;;1.55;;
74791;SDS011;63319;46.046;17.802;2023-04-15T02:01:04;3.38;;;1.67;;
74791;SDS011;63319;46.046;17.802;2023-04-15T02:04:07;3.50;;;1.90;;
74791;SDS011;63319;46.046;17.802;2023-04-15T02:07:17;3.40;;;1.70;;
74791;SDS011;63319;46.046;17.802;2023-04-15T02:10:20;4.27;;;1.90;;
74791;SDS011;63319;46.046;17.802;2023-04-15T02:13:23;4.25;;;1.90;;
74791;SDS011;63319;46.046;17.802;2023-04-15T02:16:26;3.63;;;1.70;;
74791;SDS011;63319;46.046;17.802;2023-04-15T02:19:29;4.43;;;2.22;;
74791;SDS011;63319;46.046;17.802;2023-04-15T02:22:32;3.67;;;1.70;;
74791;SDS011;63319;46.046;17.802;2023-04-15T02:25:36;2.87;;;1.20;;
74791;SDS011;63319;46.046;17.802;2023-04-15T02:28:41;4.00;;;1.30;;
74791;SDS011;63319;46.046;17.802;2023-04-15T02:31:43;3.50;;;1.80;;
74791;SDS011;63319;46.046;17.802;2023-04-15T02:34:46;3.42;;;1.70;;
74791;SDS011;63319;46.046;17.802;2023-04-15T02:37:50;3.23;;;1.53;;
74791;SDS011;63319;46.046;17.802;2023-04-15T02:40:53;3.77;;;1.47;;
74791;SDS011;63319;46.046;17.802;2023-04-15T02:43:55;4.55;;;1.90;;
74791;SDS011;63319;46.046;17.802;2023-04-15T02:46:58;3.45;;;1.65;;
74791;SDS011;63319;46.046;17.802;2023-04-15T02:50:02;3.65;;;1.83;;
74791;SDS011;63319;46.046;17.802;2023-04-15T02:53:06;3.17;;;1.47;;
74791;SDS011;63319;46.046;17.802;2023-04-15T02:56:09;2.73;;;1.53;;
74791;SDS011;63319;46.046;17.802;2023-04-15T02:59:13;3.42;;;1.70;;
74791;SDS011;63319;46.046;17.802;2023-04-15T03:02:15;3.05;;;1.48;;
74791;SDS011;63319;46.046;17.802;2023-04-15T03:05:18;3.05;;;1.48;;
74791;SDS011;63319;46.046;17.802;2023-04-15T03:08:24;4.00;;;1.77;;
74791;SDS011;63319;46.046;17.802;2023-04-15T03:11:31;4.33;;;1.80;;
74791;SDS011;63319;46.046;17.802;2023-04-15T03:14:36;3.28;;;1.73;;
74791;SDS011;63319;46.046;17.802;2023-04-15T03:17:39;3.15;;;1.40;;
74791;SDS011;63319;46.046;17.802;2023-04-15T03:20:42;3.83;;;1.30;;
74791;SDS011;63319;46.046;17.802;2023-04-15T03:23:47;2.80;;;1.30;;
74791;SDS011;63319;46.046;17.802;2023-04-15T03:26:50;3.23;;;1.30;;
74791;SDS011;63319;46.046;17.802;2023-04-15T03:29:53;2.78;;;1.40;;
74791;SDS011;63319;46.046;17.802;2023-04-15T03:32:58;2.75;;;1.17;;
74791;SDS011;63319;46.046;17.802;2023-04-15T03:36:01;3.75;;;1.20;;
74791;SDS011;63319;46.046;17.802;2023-04-15T03:39:03;3.27;;;1.50;;
74791;SDS011;63319;46.046;17.802;2023-04-15T03:42:06;3.37;;;1.33;;
74791;SDS011;63319;46.046;17.802;2023-04-15T03:45:09;3.03;;;1.15;;
74791;SDS011;63319;46.046;17.802;2023-04-15T03:48:12;3.42;;;1.45;;
74791;SDS011;63319;46.046;17.802;2023-04-15T03:51:19;2.80;;;1.35;;
74791;SDS011;63319;46.046;17.802;2023-04-15T03:54:21;3.77;;;1.57;;
74791;SDS011;63319;46.046;17.802;2023-04-15T03:57:24;3.27;;;1.33;;
74791;SDS011;63319;46.046;17.802;2023-04-15T04:00:27;3.10;;;1.48;;
74791;SDS011;63319;46.046;17.802;2023-04-15T04:03:30;3.35;;;1.70;;
74791;SDS011;63319;46.046;17.802;2023-04-15T04:06:33;3.10;;;1.52;;
74791;SDS011;63319;46.046;17.802;2023-04-15T04:09:36;3.33;;;1.53;;
74791;SDS011;63319;46.046;17.802;2023-04-15T04:12:41;2.90;;;1.20;;
74791;SDS011;63319;46.046;17.802;2023-04-15T04:15:44;2.30;;;1.17;;
74791;SDS011;63319;46.046;17.802;2023-04-15T04:18:47;4.38;;;1.52;;
74791;SDS011;63319;46.046;17.802;2023-04-15T04:21:50;3.05;;;1.38;;
74791;SDS011;63319;46.046;17.802;2023-04-15T04:24:53;3.27;;;1.67;;
74791;SDS011;63319;46.046;17.802;2023-04-15T04:27:56;3.73;;;1.60;;
74791;SDS011;63319;46.046;17.802;2023-04-15T04:30:58;3.10;;;1.40;;
74791;SDS011;63319;46.046;17.802;2023-04-15T04:34:01;3.33;;;1.70;;
74791;SDS011;63319;46.046;17.802;2023-04-15T04:37:04;4.15;;;1.50;;
74791;SDS011;63319;46.046;17.802;2023-04-15T04:40:07;3.33;;;1.30;;
74791;SDS011;63319;46.046;17.802;2023-04-15T04:43:11;2.60;;;1.33;;
74791;SDS011;63319;46.046;17.802;2023-04-15T04:46:14;3.00;;;1.27;;
74791;SDS011;63319;46.046;17.802;2023-04-15T04:49:17;3.22;;;1.55;;
74791;SDS011;63319;46.046;17.802;2023-04-15T04:52:20;3.13;;;1.30;;
74791;SDS011;63319;46.046;17.802;2023-04-15T04:55:24;3.13;;;1.37;;
74791;SDS011;63319;46.046;17.802;2023-04-15T04:58:27;3.20;;;1.30;;
74791;SDS011;63319;46.046;17.802;2023-04-15T05:01:29;2.50;;;1.17;;
74791;SDS011;63319;46.046;17.802;2023-04-15T05:04:32;2.65;;;1.00;;
74791;SDS011;63319;46.046;17.802;2023-04-15T05:07:35;4.18;;;1.80;;
74791;SDS011;63319;46.046;17.802;2023-04-15T05:10:39;3.27;;;1.63;;
74791;SDS011;63319;46.046;17.802;2023-04-15T05:13:41;2.77;;;1.57;;
74791;SDS011;63319;46.046;17.802;2023-04-15T05:16:44;3.00;;;1.23;;
74791;SDS011;63319;46.046;17.802;2023-04-15T05:19:47;2.70;;;1.20;;
74791;SDS011;63319;46.046;17.802;2023-04-15T05:22:50;2.75;;;1.30;;
74791;SDS011;63319;46.046;17.802;2023-04-15T05:25:53;2.47;;;1.23;;
74791;SDS011;63319;46.046;17.802;2023-04-15T05:28:55;2.87;;;1.40;;
74791;SDS011;63319;46.046;17.802;2023-04-15T05:31:58;2.83;;;1.33;;
74791;SDS011;63319;46.046;17.802;2023-04-15T05:35:02;4.13;;;1.65;;
74791;SDS011;63319;46.046;17.802;2023-04-15T05:38:05;2.95;;;1.17;;
74791;SDS011;63319;46.046;17.802;2023-04-15T05:41:09;2.57;;;1.33;;
74791;SDS011;63319;46.046;17.802;2023-04-15T05:44:12;2.40;;;1.30;;
74791;SDS011;63319;46.046;17.802;2023-04-15T05:47:14;3.50;;;1.50;;
74791;SDS011;63319;46.046;17.802;2023-04-15T05:50:17;4.35;;;1.45;;
74791;SDS011;63319;46.046;17.802;2023-04-15T05:53:20;4.32;;;1.55;;
74791;SDS011;63319;46.046;17.802;2023-04-15T05:56:48;2.80;;;1.30;;
74791;SDS011;63319;46.046;17.802;2023-04-15T05:59:51;3.23;;;1.57;;
74791;SDS011;63319;46.046;17.802;2023-04-15T06:02:55;3.17;;;1.50;;
74791;SDS011;63319;46.046;17.802;2023-04-15T06:05:58;3.25;;;1.50;;
74791;SDS011;63319;46.046;17.802;2023-04-15T06:09:04;3.53;;;1.40;;
74791;SDS011;63319;46.046;17.802;2023-04-15T06:12:07;3.17;;;1.50;;
74791;SDS011;63319;46.046;17.802;2023-04-15T06:15:13;3.20;;;1.50;;
74791;SDS011;63319;46.046;17.802;2023-04-15T06:18:16;2.97;;;1.38;;
74791;SDS011;63319;46.046;17.802;2023-04-15T06:21:19;2.45;;;1.30;;
74791;SDS011;63319;46.046;17.802;2023-04-15T06:24:22;2.72;;;1.40;;
74791;SDS011;63319;46.046;17.802;2023-04-15T06:27:25;2.53;;;1.20;;
74791;SDS011;63319;46.046;17.802;2023-04-15T06:30:28;3.53;;;1.47;;
74791;SDS011;63319;46.046;17.802;2023-04-15T06:33:32;3.97;;;1.70;;
74791;SDS011;63319;46.046;17.802;2023-04-15T06:36:35;2.58;;;1.02;;
74791;SDS011;63319;46.046;17.802;2023-04-15T06:39:38;3.42;;;1.40;;
74791;SDS011;63319;46.046;17.802;2023-04-15T06:42:41;2.87;;;1.30;;
74791;SDS011;63319;46.046;17.802;2023-04-15T06:45:44;2.37;;;1.30;;
74791;SDS011;63319;46.046;17.802;2023-04-15T06:48:47;3.10;;;1.55;;
74791;SDS011;63319;46.046;17.802;2023-04-15T06:51:50;2.45;;;1.20;;
74791;SDS011;63319;46.046;17.802;2023-04-15T06:54:54;3.55;;;1.08;;
74791;SDS011;63319;46.046;17.802;2023-04-15T06:57:58;2.13;;;1.10;;
74791;SDS011;63319;46.046;17.802;2023-04-15T07:01:01;3.00;;;1.40;;
74791;SDS011;63319;46.046;17.802;2023-04-15T07:04:05;2.72;;;1.40;;
74791;SDS011;63319;46.046;17.802;2023-04-15T07:07:09;2.28;;;1.17;;
74791;SDS011;63319;46.046;17.802;2023-04-15T07:10:11;2.75;;;1.35;;
74791;SDS011;63319;46.046;17.802;2023-04-15T07:13:16;2.63;;;1.20;;
74791;SDS011;63319;46.046;17.802;2023-04-15T07:16:18;3.40;;;1.63;;
74791;SDS011;63319;46.046;17.802;2023-04-15T07:19:22;2.50;;;1.23;;
74791;SDS011;63319;46.046;17.802;2023-04-15T07:22:25;2.85;;;1.30;;
74791;SDS011;63319;46.046;17.802;2023-04-15T07:25:28;2.88;;;1.42;;
74791;SDS011;63319;46.046;17.802;2023-04-15T07:28:30;2.17;;;1.10;;
74791;SDS011;63319;46.046;17.802;2023-04-15T07:31:33;3.90;;;1.40;;
74791;SDS011;63319;46.046;17.802;2023-04-15T07:34:38;1.92;;;1.10;;
74791;SDS011;63319;46.046;17.802;2023-04-15T07:37:40;2.58;;;1.20;;
74791;SDS011;63319;46.046;17.802;2023-04-15T07:40:45;2.55;;;1.27;;
74791;SDS011;63319;46.046;17.802;2023-04-15T07:43:48;2.20;;;1.10;;
74791;SDS011;63319;46.046;17.802;2023-04-15T07:46:51;2.70;;;1.60;;
74791;SDS011;63319;46.046;17.802;2023-04-15T07:49:55;3.78;;;1.40;;
74791;SDS011;63319;46.046;17.802;2023-04-15T07:52:58;2.13;;;1.05;;
74791;SDS011;63319;46.046;17.802;2023-04-15T07:56:02;1.80;;;0.95;;
74791;SDS011;63319;46.046;17.802;2023-04-15T07:59:05;2.20;;;1.03;;
74791;SDS011;63319;46.046;17.802;2023-04-15T08:02:08;2.67;;;1.27;;
74791;SDS011;63319;46.046;17.802;2023-04-15T08:05:13;2.65;;;1.23;;
74791;SDS011;63319;46.046;17.802;2023-04-15T08:08:16;2.97;;;1.60;;
74791;SDS011;63319;46.046;17.802;2023-04-15T08:11:19;3.17;;;1.40;;
74791;SDS011;63319;46.046;17.802;2023-04-15T08:14:23;3.60;;;1.10;;
74791;SDS011;63319;46.046;17.802;2023-04-15T08:17:26;3.50;;;1.20;;
74791;SDS011;63319;46.046;17.802;2023-04-15T08:20:29;2.08;;;1.10;;
74791;SDS011;63319;46.046;17.802;2023-04-15T08:23:32;2.30;;;1.20;;
74791;SDS011;63319;46.046;17.802;2023-04-15T08:26:35;2.55;;;1.30;;
74791;SDS011;63319;46.046;17.802;2023-04-15T08:29:38;3.23;;;1.37;;
74791;SDS011;63319;46.046;17.802;2023-04-15T08:32:45;2.60;;;1.20;;
74791;SDS011;63319;46.046;17.802;2023-04-15T08:35:49;2.58;;;1.20;;
74791;SDS011;63319;46.046;17.802;2023-04-15T08:38:51;2.78;;;1.13;;
74791;SDS011;63319;46.046;17.802;2023-04-15T08:42:00;2.13;;;1.00;;
74791;SDS011;63319;46.046;17.802;2023-04-15T08:45:05;3.20;;;1.40;;
74791;SDS011;63319;46.046;17.802;2023-04-15T08:48:13;2.47;;;1.30;;
74791;SDS011;63319;46.046;17.802;2023-04-15T08:51:20;2.92;;;1.38;;
74791;SDS011;63319;46.046;17.802;2023-04-15T08:54:26;3.05;;;1.33;;
74791;SDS011;63319;46.046;17.802;2023-04-15T08:57:29;2.50;;;1.35;;
74791;SDS011;63319;46.046;17.802;2023-04-15T09:00:33;3.10;;;1.50;;
74791;SDS011;63319;46.046;17.802;2023-04-15T09:03:36;2.73;;;1.33;;
74791;SDS011;63319;46.046;17.802;2023-04-15T09:06:39;1.70;;;1.02;;
74791;SDS011;63319;46.046;17.802;2023-04-15T09:09:42;2.63;;;1.10;;
74791;SDS011;63319;46.046;17.802;2023-04-15T09:12:45;2.25;;;0.95;;
74791;SDS011;63319;46.046;17.802;2023-04-15T09:15:48;2.83;;;1.20;;
74791;SDS011;63319;46.046;17.802;2023-04-15T09:18:52;2.90;;;1.40;;
74791;SDS011;63319;46.046;17.802;2023-04-15T09:21:56;2.75;;;1.20;;
74791;SDS011;63319;46.046;17.802;2023-04-15T09:25:00;3.15;;;1.23;;
74791;SDS011;63319;46.046;17.802;2023-04-15T09:28:03;2.47;;;1.23;;
74791;SDS011;63319;46.046;17.802;2023-04-15T09:31:06;3.40;;;1.60;;
74791;SDS011;63319;46.046;17.802;2023-04-15T09:34:09;2.93;;;1.00;;
74791;SDS011;63319;46.046;17.802;2023-04-15T09:37:12;2.65;;;1.40;;
74791;SDS011;63319;46.046;17.802;2023-04-15T09:40:36;2.60;;;1.30;;
74791;SDS011;63319;46.046;17.802;2023-04-15T09:43:40;1.55;;;0.82;;
74791;SDS011;63319;46.046;17.802;2023-04-15T09:46:43;2.47;;;1.20;;
74791;SDS011;63319;46.046;17.802;2023-04-15T09:49:56;2.73;;;1.37;;
74791;SDS011;63319;46.046;17.802;2023-04-15T09:53:00;2.45;;;1.10;;
74791;SDS011;63319;46.046;17.802;2023-04-15T09:56:05;2.47;;;1.00;;
74791;SDS011;63319;46.046;17.802;2023-04-15T09:59:10;2.70;;;1.30;;
74791;SDS011;63319;46.046;17.802;2023-04-15T10:02:13;2.00;;;0.90;;
74791;SDS011;63319;46.046;17.802;2023-04-15T10:05:17;2.27;;;1.30;;
74791;SDS011;63319;46.046;17.802;2023-04-15T10:08:21;2.83;;;1.20;;
74791;SDS011;63319;46.046;17.802;2023-04-15T10:11:28;1.95;;;1.10;;
74791;SDS011;63319;46.046;17.802;2023-04-15T10:14:33;3.47;;;1.83;;
74791;SDS011;63319;46.046;17.802;2023-04-15T10:17:40;2.57;;;1.30;;
74791;SDS011;63319;46.046;17.802;2023-04-15T10:20:45;2.77;;;1.20;;
74791;SDS011;63319;46.046;17.802;2023-04-15T10:23:50;2.28;;;0.98;;
74791;SDS011;63319;46.046;17.802;2023-04-15T10:26:53;1.90;;;1.02;;
74791;SDS011;63319;46.046;17.802;2023-04-15T10:29:56;2.60;;;1.00;;
74791;SDS011;63319;46.046;17.802;2023-04-15T10:33:02;2.33;;;1.20;;
74791;SDS011;63319;46.046;17.802;2023-04-15T10:36:06;4.30;;;1.17;;
74791;SDS011;63319;46.046;17.802;2023-04-15T10:42:41;3.13;;;1.02;;
74791;SDS011;63319;46.046;17.802;2023-04-15T10:45:44;3.08;;;1.75;;
74791;SDS011;63319;46.046;17.802;2023-04-15T10:48:50;2.93;;;1.40;;
74791;SDS011;63319;46.046;17.802;2023-04-15T10:51:57;2.80;;;1.37;;
74791;SDS011;63319;46.046;17.802;2023-04-15T10:55:23;3.30;;;1.40;;
74791;SDS011;63319;46.046;17.802;2023-04-15T10:58:28;2.60;;;0.93;;
74791;SDS011;63319;46.046;17.802;2023-04-15T11:01:49;2.17;;;1.25;;
74791;SDS011;63319;46.046;17.802;2023-04-15T11:04:58;2.53;;;1.10;;
74791;SDS011;63319;46.046;17.802;2023-04-15T11:08:01;2.50;;;1.37;;
74791;SDS011;63319;46.046;17.802;2023-04-15T11:11:05;2.45;;;1.35;;
74791;SDS011;63319;46.046;17.802;2023-04-15T11:14:08;2.30;;;1.00;;
74791;SDS011;63319;46.046;17.802;2023-04-15T11:17:25;4.25;;;1.33;;
74791;SDS011;63319;46.046;17.802;2023-04-15T11:20:30;2.63;;;1.10;;
74791;SDS011;63319;46.046;17.802;2023-04-15T11:26:45;2.75;;;1.27;;
74791;SDS011;63319;46.046;17.802;2023-04-15T11:29:48;2.25;;;1.30;;
74791;SDS011;63319;46.046;17.802;2023-04-15T11:32:52;2.83;;;1.20;;
74791;SDS011;63319;46.046;17.802;2023-04-15T11:35:56;2.30;;;1.10;;
74791;SDS011;63319;46.046;17.802;2023-04-15T11:39:00;2.57;;;1.00;;
74791;SDS011;63319;46.046;17.802;2023-04-15T11:42:11;2.10;;;1.20;;
74791;SDS011;63319;46.046;17.802;2023-04-15T11:45:18;1.92;;;1.00;;
74791;SDS011;63319;46.046;17.802;2023-04-15T11:48:22;2.20;;;1.27;;
74791;SDS011;63319;46.046;17.802;2023-04-15T11:51:30;1.80;;;0.93;;
74791;SDS011;63319;46.046;17.802;2023-04-15T11:54:34;2.40;;;1.10;;
74791;SDS011;63319;46.046;17.802;2023-04-15T11:57:38;2.97;;;1.10;;
74791;SDS011;63319;46.046;17.802;2023-04-15T12:00:44;2.28;;;1.17;;
74791;SDS011;63319;46.046;17.802;2023-04-15T12:03:55;1.95;;;1.00;;
74791;SDS011;63319;46.046;17.802;2023-04-15T12:07:03;2.33;;;1.13;;
74791;SDS011;63319;46.046;17.802;2023-04-15T12:10:07;2.47;;;1.27;;
74791;SDS011;63319;46.046;17.802;2023-04-15T12:13:10;2.25;;;0.95;;
74791;SDS011;63319;46.046;17.802;2023-04-15T12:16:16;2.35;;;1.20;;
74791;SDS011;63319;46.046;17.802;2023-04-15T12:19:40;2.55;;;1.45;;
74791;SDS011;63319;46.046;17.802;2023-04-15T12:22:44;2.20;;;1.20;;
74791;SDS011;63319;46.046;17.802;2023-04-15T12:25:50;1.40;;;0.90;;
74791;SDS011;63319;46.046;17.802;2023-04-15T12:29:04;2.08;;;1.17;;
74791;SDS011;63319;46.046;17.802;2023-04-15T12:32:10;2.22;;;0.98;;
74791;SDS011;63319;46.046;17.802;2023-04-15T12:35:22;1.48;;;0.80;;
74791;SDS011;63319;46.046;17.802;2023-04-15T12:38:25;2.10;;;1.10;;
74791;SDS011;63319;46.046;17.802;2023-04-15T12:41:27;1.80;;;1.10;;
74791;SDS011;63319;46.046;17.802;2023-04-15T12:44:30;1.98;;;0.90;;
74791;SDS011;63319;46.046;17.802;2023-04-15T12:47:35;1.83;;;1.00;;
74791;SDS011;63319;46.046;17.802;2023-04-15T12:50:38;2.08;;;1.30;;
74791;SDS011;63319;46.046;17.802;2023-04-15T12:53:40;2.40;;;0.90;;
74791;SDS011;63319;46.046;17.802;2023-04-15T12:56:43;2.43;;;1.17;;
74791;SDS011;63319;46.046;17.802;2023-04-15T12:59:47;2.35;;;1.00;;
74791;SDS011;63319;46.046;17.802;2023-04-15T13:02:50;2.00;;;1.10;;
74791;SDS011;63319;46.046;17.802;2023-04-15T13:05:53;2.67;;;1.20;;
74791;SDS011;63319;46.046;17.802;2023-04-15T13:08:56;1.27;;;0.80;;
74791;SDS011;63319;46.046;17.802;2023-04-15T13:12:00;2.77;;;0.90;;
74791;SDS011;63319;46.046;17.802;2023-04-15T13:15:03;2.80;;;1.30;;
74791;SDS011;63319;46.046;17.802;2023-04-15T13:18:06;1.80;;;0.90;;
74791;SDS011;63319;46.046;17.802;2023-04-15T13:21:10;2.55;;;1.10;;
74791;SDS011;63319;46.046;17.802;2023-04-15T13:24:14;1.87;;;1.03;;
74791;SDS011;63319;46.046;17.802;2023-04-15T13:27:17;2.10;;;1.07;;
74791;SDS011;63319;46.046;17.802;2023-04-15T13:30:20;2.85;;;1.35;;
74791;SDS011;63319;46.046;17.802;2023-04-15T13:33:23;2.70;;;1.10;;
74791;SDS011;63319;46.046;17.802;2023-04-15T13:36:26;2.50;;;1.40;;
74791;SDS011;63319;46.046;17.802;2023-04-15T13:39:29;3.37;;;1.43;;
74791;SDS011;63319;46.046;17.802;2023-04-15T13:42:31;2.70;;;1.30;;
74791;SDS011;63319;46.046;17.802;2023-04-15T13:45:34;3.08;;;1.50;;
74791;SDS011;63319;46.046;17.802;2023-04-15T13:48:37;2.45;;;1.02;;
74791;SDS011;63319;46.046;17.802;2023-04-15T13:51:41;2.95;;;1.27;;
74791;SDS011;63319;46.046;17.802;2023-04-15T13:54:43;2.00;;;0.97;;
74791;SDS011;63319;46.046;17.802;2023-04-15T13:57:47;2.43;;;1.30;;
74791;SDS011;63319;46.046;17.802;2023-04-15T14:00:50;2.35;;;1.20;;
74791;SDS011;63319;46.046;17.802;2023-04-15T14:03:53;2.78;;;1.30;;
74791;SDS011;63319;46.046;17.802;2023-04-15T14:06:55;2.22;;;1.02;;
74791;SDS011;63319;46.046;17.802;2023-04-15T14:09:59;2.33;;;1.20;;
74791;SDS011;63319;46.046;17.802;2023-04-15T14:13:02;2.53;;;1.10;;
74791;SDS011;63319;46.046;17.802;2023-04-15T14:16:05;2.58;;;1.27;;
74791;SDS011;63319;46.046;17.802;2023-04-15T14:19:07;1.70;;;0.90;;
74791;SDS011;63319;46.046;17.802;2023-04-15T14:22:10;2.47;;;1.50;;
74791;SDS011;63319;46.046;17.802;2023-04-15T14:25:13;2.43;;;1.20;;
74791;SDS011;63319;46.046;17.802;2023-04-15T14:28:34;3.07;;;1.50;;
74791;SDS011;63319;46.046;17.802;2023-04-15T14:31:37;2.22;;;1.10;;
74791;SDS011;63319;46.046;17.802;2023-04-15T14:34:42;2.35;;;1.10;;
74791;SDS011;63319;46.046;17.802;2023-04-15T14:37:45;1.45;;;0.88;;
74791;SDS011;63319;46.046;17.802;2023-04-15T14:40:48;1.87;;;1.00;;
74791;SDS011;63319;46.046;17.802;2023-04-15T14:43:51;2.60;;;0.80;;
74791;SDS011;63319;46.046;17.802;2023-04-15T14:46:54;1.98;;;1.10;;
74791;SDS011;63319;46.046;17.802;2023-04-15T14:49:57;2.35;;;1.20;;
74791;SDS011;63319;46.046;17.802;2023-04-15T14:53:00;2.13;;;0.80;;
74791;SDS011;63319;46.046;17.802;2023-04-15T14:56:03;2.40;;;1.00;;
74791;SDS011;63319;46.046;17.802;2023-04-15T14:59:06;2.83;;;1.20;;
74791;SDS011;63319;46.046;17.802;2023-04-15T15:02:09;1.88;;;0.90;;
74791;SDS011;63319;46.046;17.802;2023-04-15T15:05:16;2.50;;;1.27;;
74791;SDS011;63319;46.046;17.802;2023-04-15T15:08:19;2.88;;;1.45;;
74791;SDS011;63319;46.046;17.802;2023-04-15T15:11:22;2.80;;;1.43;;
74791;SDS011;63319;46.046;17.802;2023-04-15T15:14:26;2.37;;;1.27;;
74791;SDS011;63319;46.046;17.802;2023-04-15T15:17:29;1.90;;;1.00;;
74791;SDS011;63319;46.046;17.802;2023-04-15T15:20:32;3.72;;;1.00;;
74791;SDS011;63319;46.046;17.802;2023-04-15T15:23:54;3.30;;;1.50;;
74791;SDS011;63319;46.046;17.802;2023-04-15T15:26:57;2.33;;;1.07;;
74791;SDS011;63319;46.046;17.802;2023-04-15T15:30:00;1.80;;;0.77;;
74791;SDS011;63319;46.046;17.802;2023-04-15T15:33:02;2.95;;;1.20;;
74791;SDS011;63319;46.046;17.802;2023-04-15T15:36:08;3.20;;;1.00;;
74791;SDS011;63319;46.046;17.802;2023-04-15T15:39:11;2.50;;;1.30;;
74791;SDS011;63319;46.046;17.802;2023-04-15T15:42:15;3.00;;;1.47;;
74791;SDS011;63319;46.046;17.802;2023-04-15T15:45:20;2.27;;;1.10;;
74791;SDS011;63319;46.046;17.802;2023-04-15T15:48:23;2.72;;;1.40;;
74791;SDS011;63319;46.046;17.802;2023-04-15T15:51:26;3.20;;;1.20;;
74791;SDS011;63319;46.046;17.802;2023-04-15T15:54:29;2.58;;;1.13;;
74791;SDS011;63319;46.046;17.802;2023-04-15T15:57:31;3.87;;;1.10;;
74791;SDS011;63319;46.046;17.802;2023-04-15T16:00:34;2.97;;;1.50;;
74791;SDS011;63319;46.046;17.802;2023-04-15T16:03:37;2.55;;;1.23;;
74791;SDS011;63319;46.046;17.802;2023-04-15T16:06:40;2.15;;;1.08;;
74791;SDS011;63319;46.046;17.802;2023-04-15T16:09:45;3.03;;;1.20;;
74791;SDS011;63319;46.046;17.802;2023-04-15T16:12:49;2.53;;;1.10;;
74791;SDS011;63319;46.046;17.802;2023-04-15T16:15:52;2.37;;;1.30;;
74791;SDS011;63319;46.046;17.802;2023-04-15T16:18:58;2.53;;;1.10;;
74791;SDS011;63319;46.046;17.802;2023-04-15T16:22:00;2.03;;;1.10;;
74791;SDS011;63319;46.046;17.802;2023-04-15T16:25:04;2.65;;;1.30;;
74791;SDS011;63319;46.046;17.802;2023-04-15T16:28:08;3.23;;;1.33;;
74791;SDS011;63319;46.046;17.802;2023-04-15T16:31:27;3.43;;;1.53;;
74791;SDS011;63319;46.046;17.802;2023-04-15T16:34:30;2.88;;;1.40;;
74791;SDS011;63319;46.046;17.802;2023-04-15T16:37:33;3.15;;;1.60;;
74791;SDS011;63319;46.046;17.802;2023-04-15T16:40:37;2.80;;;1.40;;
74791;SDS011;63319;46.046;17.802;2023-04-15T16:43:40;3.27;;;1.50;;
74791;SDS011;63319;46.046;17.802;2023-04-15T16:46:43;2.70;;;1.40;;
74791;SDS011;63319;46.046;17.802;2023-04-15T16:49:46;3.13;;;1.45;;
74791;SDS011;63319;46.046;17.802;2023-04-15T16:52:49;3.08;;;1.25;;
74791;SDS011;63319;46.046;17.802;2023-04-15T16:55:52;3.80;;;1.65;;
74791;SDS011;63319;46.046;17.802;2023-04-15T16:58:55;2.87;;;1.30;;
74791;SDS011;63319;46.046;17.802;2023-04-15T17:01:58;3.30;;;1.80;;
74791;SDS011;63319;46.046;17.802;2023-04-15T17:05:02;3.60;;;1.60;;
74791;SDS011;63319;46.046;17.802;2023-04-15T17:08:05;3.20;;;1.40;;
74791;SDS011;63319;46.046;17.802;2023-04-15T17:11:09;4.53;;;2.05;;
74791;SDS011;63319;46.046;17.802;2023-04-15T17:14:13;3.43;;;1.53;;
74791;SDS011;63319;46.046;17.802;2023-04-15T17:17:16;3.50;;;1.90;;
74791;SDS011;63319;46.046;17.802;2023-04-15T17:20:19;3.83;;;1.73;;
74791;SDS011;63319;46.046;17.802;2023-04-15T17:23:23;3.08;;;1.52;;
74791;SDS011;63319;46.046;17.802;2023-04-15T17:26:27;3.85;;;1.92;;
74791;SDS011;63319;46.046;17.802;2023-04-15T17:29:30;4.70;;;2.20;;
74791;SDS011;63319;46.046;17.802;2023-04-15T17:32:34;3.50;;;1.90;;
74791;SDS011;63319;46.046;17.802;2023-04-15T17:35:37;3.08;;;1.65;;
74791;SDS011;63319;46.046;17.802;2023-04-15T17:38:41;4.35;;;1.83;;
74791;SDS011;63319;46.046;17.802;2023-04-15T17:41:45;4.03;;;1.70;;
74791;SDS011;63319;46.046;17.802;2023-04-15T17:44:49;3.97;;;1.87;;
74791;SDS011;63319;46.046;17.802;2023-04-15T17:47:52;5.03;;;2.27;;
74791;SDS011;63319;46.046;17.802;2023-04-15T17:51:00;4.05;;;1.92;;
74791;SDS011;63319;46.046;17.802;2023-04-15T17:54:04;4.68;;;2.03;;
74791;SDS011;63319;46.046;17.802;2023-04-15T17:57:07;5.43;;;2.30;;
74791;SDS011;63319;46.046;17.802;2023-04-15T18:00:11;4.37;;;2.00;;
74791;SDS011;63319;46.046;17.802;2023-04-15T18:03:15;4.27;;;2.03;;
74791;SDS011;63319;46.046;17.802;2023-04-15T18:06:18;4.65;;;2.03;;
74791;SDS011;63319;46.046;17.802;2023-04-15T18:09:23;4.57;;;1.88;;
74791;SDS011;63319;46.046;17.802;2023-04-15T18:12:26;4.43;;;2.10;;
74791;SDS011;63319;46.046;17.802;2023-04-15T18:15:29;4.90;;;2.40;;
74791;SDS011;63319;46.046;17.802;2023-04-15T18:18:33;5.17;;;2.43;;